createdAt,value
2023-02-23T00:02:07.949Z,24.03
2023-02-23T00:04:36.868Z,23.50
2023-02-23T00:07:06.358Z,27.20
2023-02-23T00:09:36.633Z,25.60
2023-02-23T00:12:09.197Z,25.10
2023-02-23T00:14:37.962Z,26.07
2023-02-23T00:17:10.796Z,25.00
2023-02-23T00:19:38.025Z,25.57
2023-02-23T00:22:06.479Z,25.37
2023-02-23T00:24:33.543Z,25.37
2023-02-23T00:27:06.207Z,23.37
2023-02-23T00:29:39.528Z,21.53
2023-02-23T00:32:07.145Z,25.80
2023-02-23T00:34:37.281Z,21.57
2023-02-23T00:37:04.742Z,25.90
2023-02-23T00:39:31.886Z,22.13
2023-02-23T00:42:03.655Z,24.33
2023-02-23T00:44:33.982Z,21.87
2023-02-23T00:47:02.410Z,23.70
2023-02-23T00:49:29.570Z,24.37
2023-02-23T00:51:56.703Z,24.97
2023-02-23T00:54:23.836Z,23.20
2023-02-23T00:56:51.780Z,21.90
2023-02-23T00:59:20.140Z,21.50
2023-02-23T01:01:47.701Z,19.37
2023-02-23T01:04:15.282Z,23.30
2023-02-23T01:06:43.241Z,22.97
2023-02-23T01:09:16.066Z,21.70
2023-02-23T01:11:46.800Z,22.13
2023-02-23T01:14:15.151Z,22.27
2023-02-23T01:16:42.289Z,22.70
2023-02-23T01:19:11.043Z,22.87
2023-02-23T01:21:42.200Z,26.13
2023-02-23T01:24:11.842Z,22.77
2023-02-23T01:26:42.475Z,22.80
2023-02-23T01:29:15.686Z,22.80
2023-02-23T01:31:53.162Z,22.60
2023-02-23T01:34:23.921Z,21.33
2023-02-23T01:36:51.185Z,23.43
2023-02-23T01:39:20.685Z,25.43
2023-02-23T01:41:48.510Z,26.30
2023-02-23T01:44:15.580Z,30.10
2023-02-23T01:46:46.167Z,25.87
2023-02-23T01:49:21.775Z,27.87
2023-02-23T01:52:00.466Z,21.37
2023-02-23T01:54:36.366Z,23.43
2023-02-23T01:57:05.038Z,23.40
2023-02-23T01:59:39.579Z,26.03
2023-02-23T02:02:07.777Z,22.77
2023-02-23T02:04:46.793Z,27.43
2023-02-23T02:07:20.360Z,23.30
2023-02-23T02:10:10.191Z,22.87
2023-02-23T02:12:44.290Z,23.17
2023-02-23T02:15:17.302Z,23.33
2023-02-23T02:18:18.662Z,24.67
2023-02-23T02:20:52.495Z,23.47
2023-02-23T02:24:00.868Z,27.47
2023-02-23T02:26:52.740Z,25.40
2023-02-23T02:30:13.532Z,23.47
2023-02-23T02:33:19.161Z,25.50
2023-02-23T02:36:17.890Z,23.63
2023-02-23T02:39:23.919Z,22.40
2023-02-23T02:42:18.034Z,22.53
2023-02-23T02:45:33.397Z,21.33
2023-02-23T02:48:25.815Z,26.43
2023-02-23T02:51:00.436Z,21.63
2023-02-23T02:53:41.599Z,23.00
2023-02-23T02:56:09.816Z,24.53
2023-02-23T02:58:39.131Z,22.57
2023-02-23T03:01:33.208Z,22.77
2023-02-23T03:04:38.351Z,25.83
2023-02-23T03:07:39.572Z,21.57
2023-02-23T03:10:41.058Z,25.60
2023-02-23T03:14:13.005Z,21.00
2023-02-23T03:17:03.108Z,22.87
2023-02-23T03:19:55.098Z,23.10
2023-02-23T03:22:47.187Z,27.47
2023-02-23T03:26:00.294Z,23.43
2023-02-23T03:28:52.403Z,28.30
2023-02-23T03:32:05.549Z,25.77
2023-02-23T03:35:28.557Z,23.77
2023-02-23T03:38:46.555Z,29.77
2023-02-23T03:41:34.200Z,23.83
2023-02-23T03:44:29.338Z,25.77
2023-02-23T03:47:18.206Z,24.23
2023-02-23T03:50:08.344Z,21.53
2023-02-23T03:53:12.985Z,24.10
2023-02-23T03:56:06.997Z,25.73
2023-02-23T03:59:08.534Z,22.90
2023-02-23T04:01:56.218Z,24.43
2023-02-23T04:04:43.907Z,25.60
2023-02-23T04:07:32.780Z,24.80
2023-02-23T04:10:18.804Z,22.77
2023-02-23T04:13:18.763Z,24.73
2023-02-23T04:16:01.667Z,26.33
2023-02-23T04:18:33.579Z,24.20
2023-02-23T04:21:01.581Z,21.83
2023-02-23T04:23:40.922Z,26.63
2023-02-23T04:26:08.104Z,23.87
2023-02-23T04:28:35.298Z,25.97
2023-02-23T04:31:02.692Z,23.13
2023-02-23T04:33:29.788Z,31.50
2023-02-23T04:35:56.892Z,24.33
2023-02-23T04:38:24.000Z,24.60
2023-02-23T04:40:51.581Z,25.80
2023-02-23T04:43:18.667Z,25.33
2023-02-23T04:45:46.068Z,25.63
2023-02-23T04:48:13.129Z,23.33
2023-02-23T04:50:40.209Z,24.93
2023-02-23T04:53:07.485Z,30.53
2023-02-23T04:55:34.605Z,25.97
2023-02-23T04:58:02.745Z,30.07
2023-02-23T05:00:30.506Z,28.33
2023-02-23T05:02:58.279Z,26.57
2023-02-23T05:05:25.527Z,24.33
2023-02-23T05:07:54.607Z,23.90
2023-02-23T05:10:21.920Z,25.00
2023-02-23T05:12:49.084Z,22.57
2023-02-23T05:15:16.502Z,24.77
2023-02-23T05:17:43.588Z,26.63
2023-02-23T05:20:12.737Z,25.23
2023-02-23T05:22:40.429Z,23.07
2023-02-23T05:25:10.225Z,28.97
2023-02-23T05:27:38.810Z,22.77
2023-02-23T05:30:08.000Z,24.37
2023-02-23T05:32:35.451Z,26.90
2023-02-23T05:35:02.954Z,23.70
2023-02-23T05:37:30.231Z,26.57
2023-02-23T05:39:57.267Z,24.23
2023-02-23T05:42:24.320Z,27.53
2023-02-23T05:44:51.362Z,28.37
2023-02-23T05:47:18.739Z,24.77
2023-02-23T05:49:46.278Z,26.10
2023-02-23T05:52:13.381Z,27.43
2023-02-23T05:54:40.482Z,30.17
2023-02-23T05:57:08.366Z,27.97
2023-02-23T05:59:35.698Z,28.40
2023-02-23T06:02:05.240Z,29.63
2023-02-23T06:04:33.241Z,30.80
2023-02-23T06:07:00.423Z,29.97
2023-02-23T06:09:27.566Z,29.60
2023-02-23T06:11:55.065Z,28.30
2023-02-23T06:14:22.121Z,28.63
2023-02-23T06:16:49.312Z,27.27
2023-02-23T06:19:16.594Z,25.97
2023-02-23T06:21:44.712Z,33.87
2023-02-23T06:24:12.330Z,38.03
2023-02-23T06:26:39.537Z,38.23
2023-02-23T06:29:06.635Z,27.97
2023-02-23T06:31:34.923Z,28.40
2023-02-23T06:34:02.053Z,27.20
2023-02-23T06:36:29.552Z,26.93
2023-02-23T06:39:00.332Z,27.80
2023-02-23T06:41:27.883Z,26.60
2023-02-23T06:43:55.628Z,26.43
2023-02-23T06:46:23.270Z,25.17
2023-02-23T06:48:55.650Z,25.87
2023-02-23T06:51:23.521Z,40.03
2023-02-23T06:53:52.495Z,27.93
2023-02-23T06:56:19.901Z,25.80
2023-02-23T06:58:48.035Z,28.17
2023-02-23T07:01:16.300Z,30.07
2023-02-23T07:03:43.516Z,48.63
2023-02-23T07:06:10.784Z,33.10
2023-02-23T07:08:38.803Z,29.20
2023-02-23T07:11:11.489Z,32.70
2023-02-23T07:13:39.368Z,26.90
2023-02-23T07:16:07.645Z,28.70
2023-02-23T07:18:35.119Z,29.83
2023-02-23T07:21:02.186Z,46.87
2023-02-23T07:23:29.251Z,35.70
2023-02-23T07:25:59.608Z,35.73
2023-02-23T07:28:28.897Z,31.03
2023-02-23T07:30:59.409Z,32.60
2023-02-23T07:33:26.768Z,32.80
2023-02-23T07:35:53.830Z,34.70
2023-02-23T07:38:20.941Z,27.37
2023-02-23T07:40:51.089Z,26.90
2023-02-23T07:43:20.802Z,27.20
2023-02-23T07:45:48.060Z,27.43
2023-02-23T07:48:15.444Z,32.07
2023-02-23T07:50:43.067Z,26.80
2023-02-23T07:53:11.460Z,32.00
2023-02-23T07:55:39.527Z,29.50
2023-02-23T07:58:07.588Z,29.50
2023-02-23T08:00:36.991Z,29.30
2023-02-23T08:03:04.402Z,29.90
2023-02-23T08:05:31.409Z,27.83
2023-02-23T08:07:59.699Z,24.70
2023-02-23T08:10:26.969Z,29.30
2023-02-23T08:12:54.205Z,32.00
2023-02-23T08:15:21.351Z,30.53
2023-02-23T08:17:48.530Z,28.73
2023-02-23T08:20:15.645Z,27.97
2023-02-23T08:22:49.781Z,38.33
2023-02-23T08:25:18.365Z,43.30
2023-02-23T08:27:45.570Z,32.17
2023-02-23T08:30:14.198Z,31.03
2023-02-23T08:32:41.771Z,30.13
2023-02-23T08:35:11.098Z,29.00
2023-02-23T08:37:38.312Z,30.00
2023-02-23T08:40:06.273Z,31.47
2023-02-23T08:42:33.385Z,26.53
2023-02-23T08:45:01.502Z,33.10
2023-02-23T08:47:28.648Z,28.80
2023-02-23T08:49:55.773Z,32.10
2023-02-23T08:52:24.070Z,31.83
2023-02-23T08:54:51.177Z,29.90
2023-02-23T08:57:18.306Z,25.83
2023-02-23T08:59:45.508Z,31.83
2023-02-23T09:02:14.692Z,30.53
2023-02-23T09:04:42.132Z,31.20
2023-02-23T09:07:14.931Z,31.50
2023-02-23T09:09:42.177Z,28.70
2023-02-23T09:12:09.730Z,29.97
2023-02-23T09:14:37.197Z,29.50
2023-02-23T09:17:04.279Z,30.00
2023-02-23T09:19:31.792Z,29.00
2023-02-23T09:21:58.858Z,28.80
2023-02-23T09:24:25.917Z,29.40
2023-02-23T09:26:54.040Z,31.93
2023-02-23T09:29:21.272Z,29.63
2023-02-23T09:31:48.432Z,31.93
2023-02-23T09:34:15.583Z,26.20
2023-02-23T09:36:42.654Z,25.07
2023-02-23T09:39:09.712Z,27.30
2023-02-23T09:42:25.843Z,36.00
2023-02-23T09:45:03.582Z,32.90
2023-02-23T09:47:30.973Z,24.43
2023-02-23T09:50:02.435Z,27.77
2023-02-23T09:52:41.635Z,24.73
2023-02-23T09:55:14.428Z,26.20
2023-02-23T09:57:48.269Z,23.30
2023-02-23T10:00:27.968Z,21.60
2023-02-23T10:03:18.242Z,24.27
2023-02-23T10:05:56.029Z,22.43
2023-02-23T10:08:40.692Z,24.77
2023-02-23T10:11:28.006Z,25.77
2023-02-23T10:14:04.013Z,25.60
2023-02-23T10:17:10.281Z,25.00
2023-02-23T10:20:05.232Z,26.80
2023-02-23T10:22:35.937Z,22.80
2023-02-23T10:25:11.710Z,19.27
2023-02-23T10:27:44.147Z,20.93
2023-02-23T10:30:34.847Z,20.30
2023-02-23T10:33:42.233Z,18.23
2023-02-23T10:36:19.309Z,27.63
2023-02-23T10:38:47.249Z,26.30
2023-02-23T10:41:15.030Z,20.40
2023-02-23T10:43:42.558Z,22.37
2023-02-23T10:46:21.218Z,25.20
2023-02-23T10:48:51.153Z,20.33
2023-02-23T10:51:25.401Z,20.80
2023-02-23T10:53:53.021Z,24.63
2023-02-23T10:56:22.581Z,17.53
2023-02-23T10:58:58.522Z,26.80
2023-02-23T11:01:49.088Z,17.80
2023-02-23T11:04:26.273Z,19.13
2023-02-23T11:07:19.712Z,22.27
2023-02-23T11:09:48.343Z,21.97
2023-02-23T11:12:22.917Z,22.90
2023-02-23T11:14:56.766Z,19.80
2023-02-23T11:17:32.638Z,17.47
2023-02-23T11:20:30.528Z,22.70
2023-02-23T11:23:03.615Z,22.93
2023-02-23T11:25:37.593Z,21.80
2023-02-23T11:28:05.054Z,19.03
2023-02-23T11:30:37.597Z,20.10
2023-02-23T11:33:12.369Z,16.27
2023-02-23T11:35:39.700Z,16.37
2023-02-23T11:38:27.554Z,16.90
2023-02-23T11:41:12.004Z,15.13
2023-02-23T11:43:48.194Z,18.07
2023-02-23T11:46:15.458Z,18.40
2023-02-23T11:49:07.673Z,17.40
2023-02-23T11:51:40.485Z,16.83
2023-02-23T11:54:22.269Z,17.27
2023-02-23T11:56:55.283Z,15.27
2023-02-23T11:59:30.995Z,16.30
2023-02-23T12:02:26.360Z,14.83
2023-02-23T12:05:17.665Z,19.23
2023-02-23T12:08:03.226Z,18.83
2023-02-23T12:11:04.988Z,17.00
2023-02-23T12:13:36.828Z,14.47
2023-02-23T12:16:12.248Z,16.67
2023-02-23T12:18:59.776Z,16.33
2023-02-23T12:21:56.213Z,14.90
2023-02-23T12:24:37.869Z,14.43
2023-02-23T12:27:14.351Z,13.17
2023-02-23T12:30:22.688Z,17.70
2023-02-23T12:33:01.195Z,15.00
2023-02-23T12:35:58.726Z,18.57
2023-02-23T12:38:54.604Z,15.03
2023-02-23T12:41:48.487Z,16.73
2023-02-23T12:44:38.894Z,15.90
2023-02-23T12:47:37.579Z,14.57
2023-02-23T12:50:30.914Z,17.20
2023-02-23T12:53:22.186Z,13.70
2023-02-23T12:56:35.559Z,17.33
2023-02-23T12:59:14.243Z,18.30
2023-02-23T13:01:58.831Z,16.20
2023-02-23T13:05:16.619Z,17.77
2023-02-23T13:08:12.909Z,16.03
2023-02-23T13:11:05.870Z,16.47
2023-02-23T13:13:55.610Z,22.40
2023-02-23T13:16:27.038Z,17.53
2023-02-23T13:19:24.397Z,23.57
2023-02-23T13:22:28.983Z,19.40
2023-02-23T13:24:59.945Z,18.63
2023-02-23T13:27:37.141Z,17.83
2023-02-23T13:30:09.874Z,16.93
2023-02-23T13:32:39.351Z,20.37
2023-02-23T13:35:15.947Z,19.93
2023-02-23T13:37:48.923Z,16.90
2023-02-23T13:41:17.800Z,23.70
2023-02-23T13:43:57.403Z,22.90
2023-02-23T13:46:37.400Z,19.50
2023-02-23T13:49:28.564Z,23.40
2023-02-23T13:52:23.873Z,20.03
2023-02-23T13:54:58.804Z,17.60
2023-02-23T13:57:28.537Z,19.27
2023-02-23T13:59:55.732Z,19.60
2023-02-23T14:02:28.876Z,19.10
2023-02-23T14:05:25.093Z,16.20
2023-02-23T14:08:04.471Z,19.57
2023-02-23T14:10:41.672Z,17.63
2023-02-23T14:13:17.507Z,17.03
2023-02-23T14:15:49.925Z,18.97
2023-02-23T14:18:25.579Z,20.73
2023-02-23T14:21:02.565Z,16.17
2023-02-23T14:24:03.200Z,17.03
2023-02-23T14:26:30.236Z,16.90
2023-02-23T14:29:25.631Z,17.10
2023-02-23T14:32:11.005Z,18.13
2023-02-23T14:35:02.254Z,16.70
2023-02-23T14:37:40.163Z,20.70
2023-02-23T14:40:15.318Z,20.40
2023-02-23T14:42:47.024Z,30.13
2023-02-23T14:45:28.928Z,28.23
2023-02-23T14:48:10.164Z,25.67
2023-02-23T14:50:39.165Z,28.73
2023-02-23T14:53:19.823Z,30.27
2023-02-23T14:55:47.317Z,33.53
2023-02-23T14:58:33.505Z,34.50
2023-02-23T15:01:00.762Z,31.57
2023-02-23T15:03:27.873Z,35.83
2023-02-23T15:06:00.786Z,34.83
2023-02-23T15:08:30.639Z,35.50
2023-02-23T15:11:02.226Z,39.50
2023-02-23T15:13:39.881Z,32.83
2023-02-23T15:16:12.957Z,36.97
2023-02-23T15:18:43.345Z,36.00
2023-02-23T15:21:20.561Z,38.63
2023-02-23T15:24:06.480Z,38.23
2023-02-23T15:26:38.079Z,33.17
2023-02-23T15:29:13.539Z,35.87
2023-02-23T15:31:52.909Z,31.20
2023-02-23T15:34:26.549Z,34.20
2023-02-23T15:37:11.354Z,38.23
2023-02-23T15:39:53.257Z,38.70
2023-02-23T15:42:32.132Z,36.43
2023-02-23T15:45:02.502Z,36.97
2023-02-23T15:47:35.600Z,35.20
2023-02-23T15:50:36.014Z,40.30
2023-02-23T15:53:37.428Z,39.20
2023-02-23T15:56:27.040Z,32.97
2023-02-23T15:59:02.628Z,38.70
2023-02-23T16:01:32.302Z,32.83
2023-02-23T16:04:07.229Z,30.07
2023-02-23T16:06:45.970Z,37.60
2023-02-23T16:09:21.303Z,36.03
2023-02-23T16:12:01.750Z,32.70
2023-02-23T16:14:55.369Z,37.00
2023-02-23T16:17:57.891Z,49.47
2023-02-23T16:20:38.597Z,36.03
2023-02-23T16:23:34.126Z,39.70
2023-02-23T16:26:17.994Z,35.20
2023-02-23T16:28:46.757Z,40.67
2023-02-23T16:31:25.834Z,47.10
2023-02-23T16:33:57.135Z,37.90
2023-02-23T16:36:36.729Z,43.33
2023-02-23T16:39:10.214Z,41.77
2023-02-23T16:41:37.342Z,45.23
2023-02-23T16:44:06.946Z,42.87
2023-02-23T16:46:53.884Z,54.73
2023-02-23T16:49:23.410Z,46.03
2023-02-23T16:51:52.440Z,46.30
2023-02-23T16:54:19.505Z,51.60
2023-02-23T16:56:47.819Z,50.57
2023-02-23T16:59:18.461Z,74.97
2023-02-23T17:01:46.618Z,46.27
2023-02-23T17:04:16.272Z,62.73
2023-02-23T17:06:45.194Z,56.43
2023-02-23T17:09:12.915Z,57.53
2023-02-23T17:11:42.670Z,52.97
2023-02-23T17:14:19.839Z,51.00
2023-02-23T17:16:46.893Z,56.57
2023-02-23T17:19:15.932Z,53.17
2023-02-23T17:21:42.971Z,46.70
2023-02-23T17:24:10.176Z,55.47
2023-02-23T17:26:37.453Z,44.50
2023-02-23T17:29:04.558Z,49.30
2023-02-23T17:31:32.190Z,46.57
2023-02-23T17:34:00.245Z,46.30
2023-02-23T17:36:30.017Z,51.43
2023-02-23T17:38:58.513Z,52.57
2023-02-23T17:41:27.200Z,54.97
2023-02-23T17:43:54.510Z,55.90
2023-02-23T17:46:21.764Z,61.40
2023-02-23T17:48:48.816Z,54.00
2023-02-23T17:51:17.005Z,56.00
2023-02-23T17:53:44.158Z,48.17
2023-02-23T17:56:11.384Z,60.67
2023-02-23T17:58:40.137Z,55.77
2023-02-23T18:01:08.084Z,53.53
2023-02-23T18:03:37.519Z,54.90
2023-02-23T18:06:08.726Z,57.93
2023-02-23T18:08:36.953Z,64.37
2023-02-23T18:11:04.175Z,60.13
2023-02-23T18:13:33.818Z,58.37
2023-02-23T18:16:10.619Z,63.90
2023-02-23T18:18:44.887Z,54.37
2023-02-23T18:21:16.271Z,57.30
2023-02-23T18:23:43.400Z,68.93
2023-02-23T18:26:15.298Z,76.03
2023-02-23T18:28:44.484Z,64.37
2023-02-23T18:31:23.630Z,59.17
2023-02-23T18:33:54.121Z,66.80
2023-02-23T18:36:28.978Z,68.03
2023-02-23T18:39:01.157Z,59.37
2023-02-23T18:41:30.952Z,65.30
2023-02-23T18:44:04.848Z,56.50
2023-02-23T18:46:32.696Z,60.47
2023-02-23T18:49:01.222Z,72.77
2023-02-23T18:51:28.468Z,68.67
2023-02-23T18:53:55.766Z,65.27
2023-02-23T18:56:28.204Z,69.93
2023-02-23T18:58:59.464Z,73.33
2023-02-23T19:01:33.475Z,71.90
2023-02-23T19:04:02.396Z,73.23
2023-02-23T19:06:30.928Z,61.73
2023-02-23T19:08:59.563Z,59.97
2023-02-23T19:11:32.959Z,63.50
2023-02-23T19:14:03.998Z,62.97
2023-02-23T19:16:34.900Z,64.07
2023-02-23T19:19:04.758Z,67.10
2023-02-23T19:21:31.966Z,73.20
2023-02-23T19:24:01.113Z,67.20
2023-02-23T19:26:30.099Z,72.43
2023-02-23T19:28:58.385Z,76.07
2023-02-23T19:31:26.692Z,67.73
2023-02-23T19:33:56.760Z,64.73
2023-02-23T19:36:29.906Z,65.43
2023-02-23T19:39:10.855Z,67.83
2023-02-23T19:41:39.882Z,65.00
2023-02-23T19:44:07.480Z,60.63
2023-02-23T19:46:35.178Z,67.07
2023-02-23T19:49:03.370Z,54.07
2023-02-23T19:51:31.137Z,57.70
2023-02-23T19:53:59.030Z,56.60
2023-02-23T19:56:28.078Z,61.53
2023-02-23T19:58:57.076Z,58.60
2023-02-23T20:01:27.536Z,66.20
2023-02-23T20:03:56.789Z,62.07
2023-02-23T20:06:27.464Z,61.10
2023-02-23T20:08:55.372Z,61.53
2023-02-23T20:11:23.534Z,68.83
2023-02-23T20:13:52.994Z,62.33
2023-02-23T20:16:21.483Z,58.10
2023-02-23T20:18:48.766Z,67.77
2023-02-23T20:21:20.059Z,58.03
2023-02-23T20:23:47.864Z,58.67
2023-02-23T20:26:20.172Z,61.43
2023-02-23T20:28:47.724Z,55.97
2023-02-23T20:31:18.750Z,61.83
2023-02-23T20:33:46.550Z,60.60
2023-02-23T20:36:13.988Z,57.23
2023-02-23T20:38:41.272Z,59.00
2023-02-23T20:41:08.745Z,64.60
2023-02-23T20:43:37.375Z,55.30
2023-02-23T20:46:05.159Z,55.60
2023-02-23T20:48:34.797Z,54.23
2023-02-23T20:51:03.285Z,56.53
2023-02-23T20:53:30.603Z,55.90
2023-02-23T20:55:58.120Z,54.73
2023-02-23T20:58:25.267Z,54.30
2023-02-23T21:00:57.282Z,53.93
2023-02-23T21:03:25.512Z,54.10
2023-02-23T21:05:53.010Z,52.13
2023-02-23T21:08:21.092Z,55.97
2023-02-23T21:10:50.210Z,51.07
2023-02-23T21:13:18.742Z,54.97
2023-02-23T21:15:46.330Z,63.30
2023-02-23T21:18:13.831Z,59.30
2023-02-23T21:20:41.288Z,58.17
2023-02-23T21:23:08.699Z,65.10
2023-02-23T21:25:35.961Z,59.57
2023-02-23T21:28:03.035Z,60.40
2023-02-23T21:30:30.519Z,59.43
2023-02-23T21:32:59.522Z,61.07
2023-02-23T21:35:26.813Z,62.33
2023-02-23T21:37:53.904Z,59.30
2023-02-23T21:40:22.219Z,61.23
2023-02-23T21:42:50.806Z,63.07
2023-02-23T21:45:19.570Z,65.20
2023-02-23T21:47:48.425Z,63.30
2023-02-23T21:50:18.505Z,76.33
2023-02-23T21:52:48.617Z,96.00
2023-02-23T21:55:24.440Z,104.43
2023-02-23T21:57:52.342Z,106.57
2023-02-23T22:00:21.678Z,112.33
2023-02-23T22:02:49.897Z,114.10
2023-02-23T22:05:19.660Z,123.67
2023-02-23T22:07:53.323Z,127.70
2023-02-23T22:10:22.915Z,123.93
2023-02-23T22:12:56.024Z,136.80
2023-02-23T22:15:27.761Z,154.47
2023-02-23T22:17:56.178Z,146.77
2023-02-23T22:20:23.605Z,139.80
2023-02-23T22:22:50.697Z,131.97
2023-02-23T22:25:19.966Z,155.63
2023-02-23T22:27:47.435Z,170.07
2023-02-23T22:30:15.494Z,152.57
2023-02-23T22:32:43.583Z,147.43
2023-02-23T22:35:11.149Z,156.23
2023-02-23T22:37:39.094Z,150.80
2023-02-23T22:40:12.335Z,132.97
2023-02-23T22:42:39.478Z,135.17
2023-02-23T22:45:07.313Z,135.87
2023-02-23T22:47:35.376Z,136.50
2023-02-23T22:50:02.655Z,127.17
2023-02-23T22:52:30.012Z,118.90
2023-02-23T22:54:57.164Z,106.80
2023-02-23T22:57:24.457Z,105.00
2023-02-23T23:00:00.681Z,96.77
2023-02-23T23:02:32.429Z,100.60
2023-02-23T23:05:01.860Z,95.63
2023-02-23T23:07:31.122Z,82.63
2023-02-23T23:10:02.534Z,88.07
2023-02-23T23:12:29.877Z,94.43
2023-02-23T23:15:01.255Z,96.20
2023-02-23T23:17:32.031Z,91.30
2023-02-23T23:20:10.671Z,97.10
2023-02-23T23:22:38.553Z,100.97
2023-02-23T23:25:14.583Z,98.10
2023-02-23T23:27:44.862Z,110.90
2023-02-23T23:30:13.419Z,105.07
2023-02-23T23:32:41.032Z,117.17
2023-02-23T23:35:11.116Z,110.33
2023-02-23T23:37:41.453Z,118.57
2023-02-23T23:40:17.087Z,115.23
2023-02-23T23:42:46.773Z,115.33
2023-02-23T23:45:18.872Z,113.27
2023-02-23T23:47:47.148Z,122.50
2023-02-23T23:50:16.582Z,109.80
2023-02-23T23:52:45.291Z,105.70
2023-02-23T23:55:15.238Z,97.40
2023-02-23T23:57:43.007Z,102.00
